Warrenville, Illinois
Current Conditions -  °F | °C
As of 11:09 PM on Wednesday 26 Nov 2014 (Local Time) from KDPA Reporting Station
Haze Haze  
Wind Chill: 16°   Ceiling: 2700
Heat Index: 26°   Visibility: 6mi
Dew Point: 20°   Wind: 12mph
Humidity: 78%   Direction: 320°NW
Pressure: 30.18"   Gusts: NA
Location:  41.82°N, 88.18°W
Report Text: KDPA 270509Z 32010KT 6SM HZ OVC027 M03/M07 A3018 RMK AO2 T10331067
Loading
Personal Weather Stations






























Interactive Weather Map New forecast layout! Learn more

10-Day Weather Forecast

Advertisements
Track Severe Weather on mobile